Terminal Aerodrome Forecast
Issued by NWS

Home | Current Version | Previous Version | Text Only | Print | Product List | Glossary On
Versions: 1 2 3 4 5 6 7 8 9 10 11 12 13 14 15 16 17 18 19 20 21 22 23 24 25 26 27 28 29 30
059
FTUS43 KDMX 231737
TAFMCW
TAF
KMCW 231737Z 2318/2418 15016G24KT P6SM BKN025
      TEMPO 2320/2323 5SM -TSRA SCT015 BKN020CB
     FM240000 15014G22KT P6SM OVC035
     FM240400 16012G18KT P6SM VCSH OVC015 WS020/19040KT
     FM241400 12006KT 3SM -RA SCT003 OVC009=

USA.gov is the U.S. government's official web portal to all federal, state and local government web resources and services.